Buoy 13608

sailwx.info

Track history (hours):
 
Tides and Currents Weather Stations Pressure Air Temp Water Temp Dewpoint Dewpoint Depression Visibility Wind Speed Wind Dir Waves Ship Positions

Drifting buoy 13608

Last reported at 2018-Feb-22 04:31 UTC. Time now 2018-Feb-22 05:19 UTC.
Position N 27°11' W 018°43'.

Water temperature 19.7 ° C

Date/timePositionNaut miles runAvg speedWind from/ knotsBaromVisibWave heightAir tempDewpointWater temp
2018-Feb-22 04:31N 27°11' W 018°43'1 6.4 19.7
2018-Feb-22 04:26N 27°11' W 018°44'1 0.2 19.7
2018-Feb-21 23:49N 27°11' W 018°43'0 0.0 19.7
2018-Feb-21 22:55N 27°11' W 018°43'224.0 19.7
2018-Feb-21 22:51N 27°11' W 018°41'2 2.1 19.7
2018-Feb-21 22:06N 27°11' W 018°43'0 0.0 19.7
2018-Feb-21 22:02N 27°11' W 018°43'0 0.0 19.7
2018-Feb-21 21:11N 27°11' W 018°43'0 0.0 19.7
2018-Feb-21 20:35N 27°11' W 018°43'124.1 19.7
2018-Feb-21 20:33N 27°10' W 018°43'0 0.0 19.7
2018-Feb-21 19:53N 27°10' W 018°43'0 0.0 19.7
2018-Feb-21 18:53N 27°10' W 018°43'0 0.0 19.7
2018-Feb-21 18:50N 27°10' W 018°43'0 0.0 19.7
2018-Feb-21 18:22N 27°10' W 018°43'0 0.0 19.7
2018-Feb-21 17:44N 27°10' W 018°43'1 4.0 19.7
2018-Feb-21 17:35N 27°11' W 018°43'0 0.0 19.7
2018-Feb-21 16:01N 27°11' W 018°43'0 0.0 19.7
2018-Feb-21 12:30N 27°11' W 018°43'0 0.0 19.7
2018-Feb-21 11:39N 27°11' W 018°43'0 0.0 19.7
2018-Feb-21 11:30N 27°11' W 018°43'0 0.0 19.7
2018-Feb-21 10:57N 27°11' W 018°43'0 0.0 19.7
2018-Feb-21 10:54N 27°11' W 018°43'0 0.0 19.7
2018-Feb-21 10:50N 27°11' W 018°43'1 0.5 19.7
2018-Feb-21 09:12N 27°10' W 018°42'0 0.0 19.7
2018-Feb-21 09:05N 27°10' W 018°42'1 3.2 19.7
2018-Feb-21 08:50N 27°11' W 018°43'1 1.4 19.7
2018-Feb-21 08:16N 27°10' W 018°42'0 0.0 19.7
2018-Feb-21 07:27N 27°10' W 018°42'0 0.0 19.7
2018-Feb-21 06:38N 27°10' W 018°42'0 0.0 19.7
2018-Feb-21 06:23N 27°10' W 018°42'3 1.7 19.7
2018-Feb-21 04:45N 27°08' W 018°40'0 0.0 19.7
2018-Feb-21 04:38N 27°08' W 018°40'0 0.0 19.7
2018-Feb-20 23:16N 27°08' W 018°40'1 5.1 19.7
2018-Feb-20 23:09N 27°08' W 018°40'0 0.0 19.7
2018-Feb-20 22:31N 27°08' W 018°40'0 0.0 19.7
2018-Feb-20 22:23N 27°08' W 018°40'1 0.7 19.7
2018-Feb-20 21:31N 27°08' W 018°40'124.1 19.7
2018-Feb-20 21:29N 27°08' W 018°40'0 0.0 19.7
2018-Feb-20 21:02N 27°08' W 018°40'1 4.3 19.8
2018-Feb-20 20:45N 27°08' W 018°39'0 0.0 19.7
2018-Feb-20 19:27N 27°08' W 018°39'1 1.4 19.8
2018-Feb-20 19:04N 27°08' W 018°40'1 0.5 19.8
2018-Feb-20 17:55N 27°08' W 018°39'1 7.2 19.8
2018-Feb-20 17:44N 27°07' W 018°38'0 0.0 19.8
2018-Feb-20 16:16N 27°07' W 018°38'1 0.1 19.9
2018-Feb-20 11:51N 27°07' W 018°39'0 0.0 19.7
2018-Feb-20 11:17N 27°07' W 018°39'0 0.0 19.7
2018-Feb-20 11:15N 27°07' W 018°39'116.0 19.7
2018-Feb-20 11:11N 27°07' W 018°38'0 0.0 19.7
2018-Feb-20 11:00N 27°07' W 018°38'0 0.0 19.7
2018-Feb-20 10:17N 27°07' W 018°38'132.0 19.7
2018-Feb-20 10:15N 27°07' W 018°39'0 0.0 19.7
2018-Feb-20 09:22N 27°07' W 018°39'1 7.2 19.7
2018-Feb-20 09:17N 27°08' W 018°39'0 0.0 19.7
2018-Feb-20 08:44N 27°08' W 018°39'1 9.0 19.7
2018-Feb-20 08:40N 27°07' W 018°39'1 1.1 19.7
2018-Feb-20 07:37N 27°06' W 018°39'0 0.0 19.6
2018-Feb-20 07:28N 27°06' W 018°39'0 0.0 19.7
2018-Feb-20 07:08N 27°06' W 018°39'0 0.0 19.7
2018-Feb-20 06:35N 27°06' W 018°39'0 0.0 19.7
2018-Feb-20 05:24N 27°06' W 018°39'0 0.0 19.6
2018-Feb-20 04:55N 27°06' W 018°39'215.4 19.7
2018-Feb-20 04:48N 27°04' W 018°39'0 0.0 19.7
2018-Feb-19 23:30N 27°04' W 018°39'0 0.0 19.7
2018-Feb-19 22:54N 27°04' W 018°39'0 0.0 19.7
2018-Feb-19 22:30N 27°04' W 018°39'0 0.0 19.7
2018-Feb-19 21:57N 27°04' W 018°39'0 0.0 19.7
2018-Feb-19 21:52N 27°04' W 018°39'1 1.5 19.7
2018-Feb-19 21:30N 27°04' W 018°38'0 0.0 19.7
2018-Feb-19 21:10N 27°04' W 018°38'0 0.0 19.7
2018-Feb-19 20:57N 27°04' W 018°38'0 0.0 19.7
2018-Feb-19 19:59N 27°04' W 018°38'0 0.0 19.8
2018-Feb-19 19:14N 27°04' W 018°38'0 0.0 19.8
2018-Feb-19 19:12N 27°04' W 018°38'0 0.0 19.8
2018-Feb-19 18:16N 27°04' W 018°38'1 3.6 19.8
2018-Feb-19 18:07N 27°04' W 018°38'1 6.0 19.8
2018-Feb-19 18:01N 27°04' W 018°38'0 0.0 19.9
2018-Feb-19 16:29N 27°04' W 018°38'0 0.0 19.9
2018-Feb-19 12:14N 27°04' W 018°38'0 0.0 19.7
2018-Feb-19 12:12N 27°04' W 018°38'1 1.0 19.7
2018-Feb-19 11:40N 27°04' W 018°37'0 0.0 19.7
2018-Feb-19 11:11N 27°04' W 018°37'0 0.0 19.7
2018-Feb-19 10:40N 27°04' W 018°37'0 0.0 19.7
2018-Feb-19 10:34N 27°04' W 018°37'1 0.7 19.7
2018-Feb-19 09:51N 27°04' W 018°38'0 0.0 19.7
2018-Feb-19 09:38N 27°04' W 018°38'0 0.0 19.7
2018-Feb-19 09:34N 27°04' W 018°38'0 0.0 19.7
2018-Feb-19 07:56N 27°04' W 018°38'1 4.6 19.7
2018-Feb-19 07:49N 27°04' W 018°38'0 0.0 19.7
2018-Feb-19 07:38N 27°04' W 018°38'0 0.0 19.7
2018-Feb-19 06:45N 27°04' W 018°38'0 0.0 19.7
2018-Feb-19 05:58N 27°04' W 018°38'2 2.5 19.7
2018-Feb-19 05:00N 27°01' W 018°38'0 0.0 19.7
2018-Feb-18 23:57N 27°01' W 018°38'1 1.0 19.7
2018-Feb-18 23:11N 27°01' W 018°38'124.0 19.7
2018-Feb-18 23:08N 27°02' W 018°38'0 0.0 19.7
2018-Feb-18 22:17N 27°02' W 018°38'0 0.0 19.8
2018-Feb-18 21:28N 27°02' W 018°38'0 0.0 19.8
2018-Feb-18 21:08N 27°02' W 018°38'0 0.0 19.8
2018-Feb-18 20:57N 27°02' W 018°38'0 0.0 19.9
2018-Feb-18 20:30N 27°02' W 018°38'1 0.6 19.9
2018-Feb-18 19:39N 27°02' W 018°37'0 0.0 19.9
2018-Feb-18 19:26N 27°02' W 018°37'0 0.0 19.9
2018-Feb-18 18:46N 27°02' W 018°37'0 0.0 19.9
2018-Feb-18 18:13N 27°02' W 018°37'0 0.0 20.0
2018-Feb-18 16:39N 27°02' W 018°37'0 0.0 20.0
2018-Feb-18 16:30N 27°02' W 018°37'0 0.0 20.0
2018-Feb-18 12:41N 27°02' W 018°37'0 0.0 19.8
2018-Feb-18 11:59N 27°02' W 018°37'1 6.9 19.7
2018-Feb-18 11:52N 27°02' W 018°38'0 0.0 19.7
2018-Feb-18 10:52N 27°02' W 018°38'0 0.0 19.7
2018-Feb-18 10:14N 27°02' W 018°38'1 1.1 19.7
2018-Feb-18 09:46N 27°02' W 018°38'0 0.0 19.7
2018-Feb-18 09:16N 27°02' W 018°38'1 0.6 19.7
2018-Feb-18 08:21N 27°02' W 018°38'1 2.5 19.7
2018-Feb-18 08:08N 27°02' W 018°38'1 6.9 19.7
2018-Feb-18 08:01N 27°02' W 018°39'0 0.0 19.7
2018-Feb-18 06:57N 27°02' W 018°39'0 0.0 19.7
2018-Feb-18 06:28N 27°02' W 018°39'2 1.3 19.7
2018-Feb-18 05:16N 27°01' W 018°38'0 0.0 19.7
2018-Feb-18 03:32N 27°01' W 018°38'0 0.0 19.7
2018-Feb-17 23:27N 27°01' W 018°38'0 0.0 19.8
2018-Feb-17 22:31N 27°01' W 018°38'1 0.9 19.8
2018-Feb-17 21:54N 27°01' W 018°38'1 0.9 1026.9 -0.4-1.219.8
2018-Feb-17 21:20N 27°01' W 018°38'0 0.0 19.8
2018-Feb-17 20:56N 27°01' W 018°38'0 0.0 19.8
2018-Feb-17 20:53N 27°01' W 018°38'0 0.0 19.8
2018-Feb-17 20:03N 27°01' W 018°38'0 0.0 19.8
2018-Feb-17 19:53N 27°01' W 018°38'0 0.0 19.8
2018-Feb-17 19:38N 27°01' W 018°38'0 0.0 19.8
2018-Feb-17 19:16N 27°01' W 018°38'0 0.0 19.9
2018-Feb-17 18:29N 27°01' W 018°38'214.7 19.9
2018-Feb-17 18:22N 27°00' W 018°36'0 0.0 19.9
2018-Feb-17 16:51N 27°00' W 018°36'0 0.0 19.9
2018-Feb-17 16:40N 27°00' W 018°36'0 0.0 19.9
2018-Feb-17 15:06N 27°00' W 018°36'0 0.0 19.8
2018-Feb-17 12:58N 27°00' W 018°36'0 0.0 19.8
2018-Feb-17 12:17N 27°00' W 018°36'0 0.0 19.7
2018-Feb-17 12:11N 27°00' W 018°36'0 0.0 19.7
2018-Feb-17 11:17N 27°00' W 018°36'0 0.0 19.7
2018-Feb-17 10:29N 27°00' W 018°36'0 0.0 19.7
2018-Feb-17 09:57N 27°00' W 018°36'1 5.3 19.7
2018-Feb-17 09:51N 27°00' W 018°35'1 0.5 19.7
2018-Feb-17 08:51N 27°00' W 018°36'1 6.4 19.7
2018-Feb-17 08:46N 27°00' W 018°35'213.4 19.7
2018-Feb-17 08:35N 26°59' W 018°38'0 0.0 19.7
2018-Feb-17 07:10N 26°59' W 018°38'0 0.0 19.7
2018-Feb-17 07:02N 26°59' W 018°38'1 0.7 19.7
2018-Feb-17 05:30N 26°59' W 018°37'0 0.0 19.7
2018-Feb-17 05:28N 26°59' W 018°37'0 0.0 19.7
2018-Feb-17 05:22N 26°59' W 018°37'0 0.0 19.7
2018-Feb-17 05:15N 26°59' W 018°37'0 0.0 19.7
2018-Feb-16 22:59N 26°59' W 018°37'0 0.0 19.8
2018-Feb-16 22:55N 26°59' W 018°37'0 0.0 19.8
2018-Feb-16 22:54N 26°59' W 018°37'1 0.8 19.8
2018-Feb-16 22:14N 26°59' W 018°37'1 0.8 19.8
2018-Feb-16 21:30N 26°58' W 018°37'1 3.6 19.9
2018-Feb-16 21:21N 26°58' W 018°37'1 6.4 19.9
2018-Feb-16 21:16N 26°58' W 018°37'1 8.0 19.9
2018-Feb-16 21:12N 26°58' W 018°37'0 0.0 19.9
2018-Feb-16 20:28N 26°58' W 018°37'0 0.0 20.0
2018-Feb-16 19:48N 26°58' W 018°37'0 0.0 20.0
2018-Feb-16 19:47N 26°58' W 018°37'1 5.3 20.0
2018-Feb-16 19:41N 26°58' W 018°37'0 0.0 20.0
2018-Feb-16 18:45N 26°58' W 018°37'113.1 20.2
2018-Feb-16 18:39N 26°59' W 018°38'0 0.0 20.2
2018-Feb-16 18:08N 26°59' W 018°38'2 1.9 20.2
2018-Feb-16 17:03N 26°58' W 018°37'0 0.0 20.1
2018-Feb-16 16:52N 26°58' W 018°37'0 0.0 20.1
2018-Feb-16 15:16N 26°58' W 018°37'1 0.5 20.1
2018-Feb-16 12:40N 26°59' W 018°36'0 0.0 19.9
2018-Feb-16 11:41N 26°59' W 018°36'1 0.8 19.7
2018-Feb-16 11:01N 26°59' W 018°37'1 4.6 19.7
2018-Feb-16 10:54N 26°59' W 018°36'110.7 19.7
2018-Feb-16 10:51N 26°59' W 018°37'0 0.0 19.7
2018-Feb-16 10:09N 26°59' W 018°37'2 7.4 19.7
2018-Feb-16 09:56N 26°59' W 018°35'0 0.0 19.7
2018-Feb-16 09:11N 26°59' W 018°35'3 3.4 19.7
2018-Feb-16 08:23N 26°59' W 018°38'0 0.0 19.7
2018-Feb-16 07:31N 26°59' W 018°38'230.0 19.7
2018-Feb-16 07:27N 26°58' W 018°40'0 0.0 19.7
2018-Feb-16 07:16N 26°58' W 018°40'0 0.0 19.7
2018-Feb-16 05:45N 26°58' W 018°40'0 0.0 19.7
2018-Feb-16 05:38N 26°58' W 018°40'0 0.0 19.7
2018-Feb-16 05:34N 26°58' W 018°40'0 0.0 19.7
2018-Feb-16 03:53N 26°58' W 018°40'0 0.0 280 / 10 gusting 161023.6 0.3 2.0-6.619.7
2018-Feb-15 23:17N 26°58' W 018°40'0 0.0 19.7
2018-Feb-15 22:35N 26°58' W 018°40'113.1 19.7
2018-Feb-15 22:29N 26°59' W 018°39'1 1.5 19.7
2018-Feb-15 21:42N 26°58' W 018°39'0 0.0 19.7
2018-Feb-15 21:28N 26°58' W 018°39'0 0.0 19.7
2018-Feb-15 20:53N 26°58' W 018°39'1 4.6 19.7
2018-Feb-15 20:46N 26°58' W 018°40'0 0.0 19.7
2018-Feb-15 20:22N 26°58' W 018°40'1 2.4 19.7
2018-Feb-15 20:02N 26°58' W 018°39'1 0.7 19.7
2018-Feb-15 19:13N 26°58' W 018°40'0 0.0 19.7
2018-Feb-15 18:42N 26°58' W 018°40'1 0.4 19.7
2018-Feb-15 17:13N 26°57' W 018°40'1 3.3 19.7
2018-Feb-15 17:02N 26°56' W 018°40'0 0.0 19.7
2018-Feb-15 15:30N 26°56' W 018°40'1 0.3 19.7
2018-Feb-15 11:59N 26°56' W 018°38'0 0.0 19.7
2018-Feb-15 11:55N 26°56' W 018°38'0 0.0 19.7
2018-Feb-15 11:15N 26°56' W 018°38'1 1.2 19.7
2018-Feb-15 10:21N 26°56' W 018°37'112.3 19.7
2018-Feb-15 10:15N 26°57' W 018°38'0 0.0 19.7
2018-Feb-15 09:34N 26°57' W 018°38'0 0.0 19.7
2018-Feb-15 08:36N 26°57' W 018°38'0 0.0 19.7
2018-Feb-15 08:03N 26°57' W 018°38'1 4.0 19.7
2018-Feb-15 07:54N 26°58' W 018°38'0 0.0 19.7
2018-Feb-15 07:50N 26°58' W 018°38'0 0.0 19.7
2018-Feb-15 06:23N 26°58' W 018°38'1 1.0 19.7
2018-Feb-15 05:52N 26°58' W 018°39'0 0.0 19.7
2018-Feb-15 04:14N 26°58' W 018°39'214.7 19.7
2018-Feb-15 04:07N 26°58' W 018°41'0 0.0 19.7
2018-Feb-14 23:38N 26°58' W 018°41'1 0.3 19.7
2018-Feb-14 21:16N 26°58' W 018°41'1 7.2 19.8
2018-Feb-14 21:11N 26°58' W 018°41'1 1.9 19.8
2018-Feb-14 20:52N 26°58' W 018°41'0 0.0 19.8
2018-Feb-14 20:11N 26°58' W 018°41'1 1.0 19.8
2018-Feb-14 19:38N 26°58' W 018°41'1 1.5 19.8
2018-Feb-14 19:14N 26°57' W 018°41'0 0.0 19.8
2018-Feb-14 17:25N 26°57' W 018°41'1 8.2 19.8
2018-Feb-14 17:16N 26°56' W 018°43'0 0.0 19.9
2018-Feb-14 15:44N 26°56' W 018°43'1 0.2 19.9
2018-Feb-14 12:20N 26°56' W 018°42'0 0.0 19.8
2018-Feb-14 12:17N 26°56' W 018°42'0 0.0 19.8
2018-Feb-14 11:38N 26°56' W 018°42'0 0.0 19.8
2018-Feb-14 11:35N 26°56' W 018°42'0 0.0 19.8
2018-Feb-14 10:44N 26°56' W 018°42'1 5.3 19.7
2018-Feb-14 10:38N 26°56' W 018°41'0 0.0 19.7
2018-Feb-14 10:29N 26°56' W 018°41'1 1.8 19.7
2018-Feb-14 10:02N 26°57' W 018°42'1 0.7 19.7
2018-Feb-14 08:51N 26°58' W 018°41'1 2.2 19.7
2018-Feb-14 08:29N 26°57' W 018°42'1 0.5 19.7
2018-Feb-14 06:55N 26°58' W 018°41'3 3.5 19.7
2018-Feb-14 05:57N 26°59' W 018°45'0 0.0 19.7
2018-Feb-14 05:11N 26°59' W 018°45'0 0.0 19.7
2018-Feb-14 04:26N 26°59' W 018°45'0 0.0 19.7
2018-Feb-14 04:17N 26°59' W 018°45'0 0.0 19.7
2018-Feb-13 23:59N 26°59' W 018°45'0 0.0 19.8
2018-Feb-13 23:55N 26°59' W 018°45'0 0.0 19.8
2018-Feb-13 23:15N 26°59' W 018°45'0 0.0 19.8
2018-Feb-13 22:14N 26°59' W 018°45'0 0.0 19.8
2018-Feb-13 22:01N 26°59' W 018°45'0 0.0 19.8
2018-Feb-13 21:30N 26°59' W 018°45'0 0.0 19.8
2018-Feb-13 21:21N 26°59' W 018°45'2 1.9 19.8
2018-Feb-13 20:26N 26°59' W 018°47'0 0.0 19.8
2018-Feb-13 20:05N 26°59' W 018°47'1 3.7 19.8
2018-Feb-13 19:45N 26°59' W 018°46'2 2.0 19.8
2018-Feb-13 18:41N 26°59' W 018°48'0 0.0 19.8
2018-Feb-13 18:23N 26°59' W 018°48'1 3.7 19.9
2018-Feb-13 18:03N 26°59' W 018°47'1 3.0 19.9
2018-Feb-13 17:37N 26°58' W 018°46'0 0.0 19.9
2018-Feb-13 15:56N 26°58' W 018°46'0 0.0 19.9
2018-Feb-13 12:41N 26°58' W 018°46'0 0.0 19.8
2018-Feb-13 12:03N 26°58' W 018°46'1 0.6 19.8
2018-Feb-13 11:07N 26°59' W 018°46'0 0.0 19.8
2018-Feb-13 11:00N 26°59' W 018°46'1 9.0 19.8
2018-Feb-13 10:56N 26°58' W 018°46'0 0.0 19.8
2018-Feb-13 10:43N 26°58' W 018°46'2 4.0 19.8
2018-Feb-13 10:16N 27°00' W 018°46'2 1.3 19.7
2018-Feb-13 08:51N 26°58' W 018°46'2 1.3 19.7
2018-Feb-13 07:25N 27°00' W 018°46'0 0.0 19.7
2018-Feb-13 07:03N 27°00' W 018°46'0 0.0 19.7
2018-Feb-13 06:14N 27°00' W 018°46'1 6.9 19.7
2018-Feb-13 06:07N 26°59' W 018°47'0 0.0 19.7
2018-Feb-13 05:44N 26°59' W 018°47'1 1.0 19.7
2018-Feb-13 04:31N 27°01' W 018°47'387.9 19.7
2018-Feb-13 04:29N 27°02' W 018°50'0 0.0 19.7
2018-Feb-13 00:17N 27°02' W 018°50'0 0.0 19.8
2018-Feb-12 22:42N 27°02' W 018°50'1 8.0 19.8
2018-Feb-12 22:38N 27°02' W 018°49'0 0.0 19.8
2018-Feb-12 22:15N 27°02' W 018°49'0 0.0 19.8
2018-Feb-12 21:58N 27°02' W 018°49'1 0.4 19.8
2018-Feb-12 20:39N 27°02' W 018°50'1 2.2 19.8
2018-Feb-12 20:17N 27°01' W 018°50'1 0.4 19.8
2018-Feb-12 18:55N 27°02' W 018°50'1 5.1 19.8
2018-Feb-12 18:48N 27°01' W 018°50'1 3.3 19.8
2018-Feb-12 18:37N 27°02' W 018°50'0 0.0 19.8
2018-Feb-12 17:46N 27°02' W 018°50'1 0.5 19.8
2018-Feb-12 16:08N 27°01' W 018°51'0 0.0 19.8
2018-Feb-12 13:01N 27°01' W 018°51'1 0.7 19.8
2018-Feb-12 12:15N 27°01' W 018°50'0 0.0 19.8
2018-Feb-12 11:23N 27°01' W 018°50'1 6.0 19.8
2018-Feb-12 11:15N 27°01' W 018°51'0 0.0 19.8
2018-Feb-12 10:55N 27°01' W 018°51'0 0.0 19.8
2018-Feb-12 10:43N 27°01' W 018°51'1 8.0 19.8
2018-Feb-12 10:37N 27°01' W 018°50'0 0.0 19.8
2018-Feb-12 09:39N 27°01' W 018°50'0 0.0 19.8
2018-Feb-12 09:15N 27°01' W 018°50'1 9.6 19.8
2018-Feb-12 09:10N 27°02' W 018°51'0 0.0 19.8
2018-Feb-12 07:57N 27°02' W 018°51'0 0.0 19.8
2018-Feb-12 07:28N 27°02' W 018°51'1 0.6 19.8
2018-Feb-12 06:27N 27°01' W 018°51'112.3 19.8
2018-Feb-12 06:21N 27°02' W 018°50'114.7 19.8
2018-Feb-12 06:16N 27°01' W 018°51'1 0.8 19.8
2018-Feb-12 04:45N 27°02' W 018°50'324.0 19.8
2018-Feb-12 04:38N 27°04' W 018°52'   19.8
Track history (hours):
 
Tides and Currents Weather Stations Pressure Air Temp Water Temp Dewpoint Dewpoint Depression Visibility Wind Speed Wind Dir Waves Ship Positions

Drifting buoy 13608

Last reported at 2018-Feb-22 04:31 UTC. Time now 2018-Feb-22 05:19 UTC.
Position N 27°11' W 018°43'.

Water temperature 19.7 ° C

Date/timePositionNaut miles runAvg speedWind from/ knotsBaromVisibWave heightAir tempDewpointWater temp
2018-Feb-22 04:31N 27°11' W 018°43'1 6.4 19.7
2018-Feb-22 04:26N 27°11' W 018°44'1 0.2 19.7
2018-Feb-21 23:49N 27°11' W 018°43'0 0.0 19.7
2018-Feb-21 22:55N 27°11' W 018°43'224.0 19.7
2018-Feb-21 22:51N 27°11' W 018°41'2 2.1 19.7
2018-Feb-21 22:06N 27°11' W 018°43'0 0.0 19.7
2018-Feb-21 22:02N 27°11' W 018°43'0 0.0 19.7
2018-Feb-21 21:11N 27°11' W 018°43'0 0.0 19.7
2018-Feb-21 20:35N 27°11' W 018°43'124.1 19.7
2018-Feb-21 20:33N 27°10' W 018°43'0 0.0 19.7
2018-Feb-21 19:53N 27°10' W 018°43'0 0.0 19.7
2018-Feb-21 18:53N 27°10' W 018°43'0 0.0 19.7
2018-Feb-21 18:50N 27°10' W 018°43'0 0.0 19.7
2018-Feb-21 18:22N 27°10' W 018°43'0 0.0 19.7
2018-Feb-21 17:44N 27°10' W 018°43'1 4.0 19.7
2018-Feb-21 17:35N 27°11' W 018°43'0 0.0 19.7
2018-Feb-21 16:01N 27°11' W 018°43'0 0.0 19.7
2018-Feb-21 12:30N 27°11' W 018°43'0 0.0 19.7
2018-Feb-21 11:39N 27°11' W 018°43'0 0.0 19.7
2018-Feb-21 11:30N 27°11' W 018°43'0 0.0 19.7
2018-Feb-21 10:57N 27°11' W 018°43'0 0.0 19.7
2018-Feb-21 10:54N 27°11' W 018°43'0 0.0 19.7
2018-Feb-21 10:50N 27°11' W 018°43'1 0.5 19.7
2018-Feb-21 09:12N 27°10' W 018°42'0 0.0 19.7
2018-Feb-21 09:05N 27°10' W 018°42'1 3.2 19.7
2018-Feb-21 08:50N 27°11' W 018°43'1 1.4 19.7
2018-Feb-21 08:16N 27°10' W 018°42'0 0.0 19.7
2018-Feb-21 07:27N 27°10' W 018°42'0 0.0 19.7
2018-Feb-21 06:38N 27°10' W 018°42'0 0.0 19.7
2018-Feb-21 06:23N 27°10' W 018°42'3 1.7 19.7
2018-Feb-21 04:45N 27°08' W 018°40'0 0.0 19.7
2018-Feb-21 04:38N 27°08' W 018°40'0 0.0 19.7
2018-Feb-20 23:16N 27°08' W 018°40'1 5.1 19.7
2018-Feb-20 23:09N 27°08' W 018°40'0 0.0 19.7
2018-Feb-20 22:31N 27°08' W 018°40'0 0.0 19.7
2018-Feb-20 22:23N 27°08' W 018°40'1 0.7 19.7
2018-Feb-20 21:31N 27°08' W 018°40'124.1 19.7
2018-Feb-20 21:29N 27°08' W 018°40'0 0.0 19.7
2018-Feb-20 21:02N 27°08' W 018°40'1 4.3 19.8
2018-Feb-20 20:45N 27°08' W 018°39'0 0.0 19.7
2018-Feb-20 19:27N 27°08' W 018°39'1 1.4 19.8
2018-Feb-20 19:04N 27°08' W 018°40'1 0.5 19.8
2018-Feb-20 17:55N 27°08' W 018°39'1 7.2 19.8
2018-Feb-20 17:44N 27°07' W 018°38'0 0.0 19.8
2018-Feb-20 16:16N 27°07' W 018°38'1 0.1 19.9
2018-Feb-20 11:51N 27°07' W 018°39'0 0.0 19.7
2018-Feb-20 11:17N 27°07' W 018°39'0 0.0 19.7
2018-Feb-20 11:15N 27°07' W 018°39'116.0 19.7
2018-Feb-20 11:11N 27°07' W 018°38'0 0.0 19.7
2018-Feb-20 11:00N 27°07' W 018°38'0 0.0 19.7
2018-Feb-20 10:17N 27°07' W 018°38'132.0 19.7
2018-Feb-20 10:15N 27°07' W 018°39'0 0.0 19.7
2018-Feb-20 09:22N 27°07' W 018°39'1 7.2 19.7
2018-Feb-20 09:17N 27°08' W 018°39'0 0.0 19.7
2018-Feb-20 08:44N 27°08' W 018°39'1 9.0 19.7
2018-Feb-20 08:40N 27°07' W 018°39'1 1.1 19.7
2018-Feb-20 07:37N 27°06' W 018°39'0 0.0 19.6
2018-Feb-20 07:28N 27°06' W 018°39'0 0.0 19.7
2018-Feb-20 07:08N 27°06' W 018°39'0 0.0 19.7
2018-Feb-20 06:35N 27°06' W 018°39'0 0.0 19.7
2018-Feb-20 05:24N 27°06' W 018°39'0 0.0 19.6
2018-Feb-20 04:55N 27°06' W 018°39'215.4 19.7
2018-Feb-20 04:48N 27°04' W 018°39'0 0.0 19.7
2018-Feb-19 23:30N 27°04' W 018°39'0 0.0 19.7
2018-Feb-19 22:54N 27°04' W 018°39'0 0.0 19.7
2018-Feb-19 22:30N 27°04' W 018°39'0 0.0 19.7
2018-Feb-19 21:57N 27°04' W 018°39'0 0.0 19.7
2018-Feb-19 21:52N 27°04' W 018°39'1 1.5 19.7
2018-Feb-19 21:30N 27°04' W 018°38'0 0.0 19.7
2018-Feb-19 21:10N 27°04' W 018°38'0 0.0 19.7
2018-Feb-19 20:57N 27°04' W 018°38'0 0.0 19.7
2018-Feb-19 19:59N 27°04' W 018°38'0 0.0 19.8
2018-Feb-19 19:14N 27°04' W 018°38'0 0.0 19.8
2018-Feb-19 19:12N 27°04' W 018°38'0 0.0 19.8
2018-Feb-19 18:16N 27°04' W 018°38'1 3.6 19.8
2018-Feb-19 18:07N 27°04' W 018°38'1 6.0 19.8
2018-Feb-19 18:01N 27°04' W 018°38'0 0.0 19.9
2018-Feb-19 16:29N 27°04' W 018°38'0 0.0 19.9
2018-Feb-19 12:14N 27°04' W 018°38'0 0.0 19.7
2018-Feb-19 12:12N 27°04' W 018°38'1 1.0 19.7
2018-Feb-19 11:40N 27°04' W 018°37'0 0.0 19.7
2018-Feb-19 11:11N 27°04' W 018°37'0 0.0 19.7
2018-Feb-19 10:40N 27°04' W 018°37'0 0.0 19.7
2018-Feb-19 10:34N 27°04' W 018°37'1 0.7 19.7
2018-Feb-19 09:51N 27°04' W 018°38'0 0.0 19.7
2018-Feb-19 09:38N 27°04' W 018°38'0 0.0 19.7
2018-Feb-19 09:34N 27°04' W 018°38'0 0.0 19.7
2018-Feb-19 07:56N 27°04' W 018°38'1 4.6 19.7
2018-Feb-19 07:49N 27°04' W 018°38'0 0.0 19.7
2018-Feb-19 07:38N 27°04' W 018°38'0 0.0 19.7
2018-Feb-19 06:45N 27°04' W 018°38'0 0.0 19.7
2018-Feb-19 05:58N 27°04' W 018°38'2 2.5 19.7
2018-Feb-19 05:00N 27°01' W 018°38'0 0.0 19.7
2018-Feb-18 23:57N 27°01' W 018°38'1 1.0 19.7
2018-Feb-18 23:11N 27°01' W 018°38'124.0 19.7
2018-Feb-18 23:08N 27°02' W 018°38'0 0.0 19.7
2018-Feb-18 22:17N 27°02' W 018°38'0 0.0 19.8
2018-Feb-18 21:28N 27°02' W 018°38'0 0.0 19.8
2018-Feb-18 21:08N 27°02' W 018°38'0 0.0 19.8
2018-Feb-18 20:57N 27°02' W 018°38'0 0.0 19.9
2018-Feb-18 20:30N 27°02' W 018°38'1 0.6 19.9
2018-Feb-18 19:39N 27°02' W 018°37'0 0.0 19.9
2018-Feb-18 19:26N 27°02' W 018°37'0 0.0 19.9
2018-Feb-18 18:46N 27°02' W 018°37'0 0.0 19.9
2018-Feb-18 18:13N 27°02' W 018°37'0 0.0 20.0
2018-Feb-18 16:39N 27°02' W 018°37'0 0.0 20.0
2018-Feb-18 16:30N 27°02' W 018°37'0 0.0 20.0
2018-Feb-18 12:41N 27°02' W 018°37'0 0.0 19.8
2018-Feb-18 11:59N 27°02' W 018°37'1 6.9 19.7
2018-Feb-18 11:52N 27°02' W 018°38'0 0.0 19.7
2018-Feb-18 10:52N 27°02' W 018°38'0 0.0 19.7
2018-Feb-18 10:14N 27°02' W 018°38'1 1.1 19.7
2018-Feb-18 09:46N 27°02' W 018°38'0 0.0 19.7
2018-Feb-18 09:16N 27°02' W 018°38'1 0.6 19.7
2018-Feb-18 08:21N 27°02' W 018°38'1 2.5 19.7
2018-Feb-18 08:08N 27°02' W 018°38'1 6.9 19.7
2018-Feb-18 08:01N 27°02' W 018°39'0 0.0 19.7
2018-Feb-18 06:57N 27°02' W 018°39'0 0.0 19.7
2018-Feb-18 06:28N 27°02' W 018°39'2 1.3 19.7
2018-Feb-18 05:16N 27°01' W 018°38'0 0.0 19.7
2018-Feb-18 03:32N 27°01' W 018°38'0 0.0 19.7
2018-Feb-17 23:27N 27°01' W 018°38'0 0.0 19.8
2018-Feb-17 22:31N 27°01' W 018°38'1 0.9 19.8
2018-Feb-17 21:54N 27°01' W 018°38'1 0.9 1026.9 -0.4-1.219.8
2018-Feb-17 21:20N 27°01' W 018°38'0 0.0 19.8
2018-Feb-17 20:56N 27°01' W 018°38'0 0.0 19.8
2018-Feb-17 20:53N 27°01' W 018°38'0 0.0 19.8
2018-Feb-17 20:03N 27°01' W 018°38'0 0.0 19.8
2018-Feb-17 19:53N 27°01' W 018°38'0 0.0 19.8
2018-Feb-17 19:38N 27°01' W 018°38'0 0.0 19.8
2018-Feb-17 19:16N 27°01' W 018°38'0 0.0 19.9
2018-Feb-17 18:29N 27°01' W 018°38'214.7 19.9
2018-Feb-17 18:22N 27°00' W 018°36'0 0.0 19.9
2018-Feb-17 16:51N 27°00' W 018°36'0 0.0 19.9
2018-Feb-17 16:40N 27°00' W 018°36'0 0.0 19.9
2018-Feb-17 15:06N 27°00' W 018°36'0 0.0 19.8
2018-Feb-17 12:58N 27°00' W 018°36'0 0.0 19.8
2018-Feb-17 12:17N 27°00' W 018°36'0 0.0 19.7
2018-Feb-17 12:11N 27°00' W 018°36'0 0.0 19.7
2018-Feb-17 11:17N 27°00' W 018°36'0 0.0 19.7
2018-Feb-17 10:29N 27°00' W 018°36'0 0.0 19.7
2018-Feb-17 09:57N 27°00' W 018°36'1 5.3 19.7
2018-Feb-17 09:51N 27°00' W 018°35'1 0.5 19.7
2018-Feb-17 08:51N 27°00' W 018°36'1 6.4 19.7
2018-Feb-17 08:46N 27°00' W 018°35'213.4 19.7
2018-Feb-17 08:35N 26°59' W 018°38'0 0.0 19.7
2018-Feb-17 07:10N 26°59' W 018°38'0 0.0 19.7
2018-Feb-17 07:02N 26°59' W 018°38'1 0.7 19.7
2018-Feb-17 05:30N 26°59' W 018°37'0 0.0 19.7
2018-Feb-17 05:28N 26°59' W 018°37'0 0.0 19.7
2018-Feb-17 05:22N 26°59' W 018°37'0 0.0 19.7
2018-Feb-17 05:15N 26°59' W 018°37'0 0.0 19.7
2018-Feb-16 22:59N 26°59' W 018°37'0 0.0 19.8
2018-Feb-16 22:55N 26°59' W 018°37'0 0.0 19.8
2018-Feb-16 22:54N 26°59' W 018°37'1 0.8 19.8
2018-Feb-16 22:14N 26°59' W 018°37'1 0.8 19.8
2018-Feb-16 21:30N 26°58' W 018°37'1 3.6 19.9
2018-Feb-16 21:21N 26°58' W 018°37'1 6.4 19.9
2018-Feb-16 21:16N 26°58' W 018°37'1 8.0 19.9
2018-Feb-16 21:12N 26°58' W 018°37'0 0.0 19.9
2018-Feb-16 20:28N 26°58' W 018°37'0 0.0 20.0
2018-Feb-16 19:48N 26°58' W 018°37'0 0.0 20.0
2018-Feb-16 19:47N 26°58' W 018°37'1 5.3 20.0
2018-Feb-16 19:41N 26°58' W 018°37'0 0.0 20.0
2018-Feb-16 18:45N 26°58' W 018°37'113.1 20.2
2018-Feb-16 18:39N 26°59' W 018°38'0 0.0 20.2
2018-Feb-16 18:08N 26°59' W 018°38'2 1.9 20.2
2018-Feb-16 17:03N 26°58' W 018°37'0 0.0 20.1
2018-Feb-16 16:52N 26°58' W 018°37'0 0.0 20.1
2018-Feb-16 15:16N 26°58' W 018°37'1 0.5 20.1
2018-Feb-16 12:40N 26°59' W 018°36'0 0.0 19.9
2018-Feb-16 11:41N 26°59' W 018°36'1 0.8 19.7
2018-Feb-16 11:01N 26°59' W 018°37'1 4.6 19.7
2018-Feb-16 10:54N 26°59' W 018°36'110.7 19.7
2018-Feb-16 10:51N 26°59' W 018°37'0 0.0 19.7
2018-Feb-16 10:09N 26°59' W 018°37'2 7.4 19.7
2018-Feb-16 09:56N 26°59' W 018°35'0 0.0 19.7
2018-Feb-16 09:11N 26°59' W 018°35'3 3.4 19.7
2018-Feb-16 08:23N 26°59' W 018°38'0 0.0 19.7
2018-Feb-16 07:31N 26°59' W 018°38'230.0 19.7
2018-Feb-16 07:27N 26°58' W 018°40'0 0.0 19.7
2018-Feb-16 07:16N 26°58' W 018°40'0 0.0 19.7
2018-Feb-16 05:45N 26°58' W 018°40'0 0.0 19.7
2018-Feb-16 05:38N 26°58' W 018°40'0 0.0 19.7
2018-Feb-16 05:34N 26°58' W 018°40'0 0.0 19.7
2018-Feb-16 03:53N 26°58' W 018°40'0 0.0 280 / 10 gusting 161023.6 0.3 2.0-6.619.7
2018-Feb-15 23:17N 26°58' W 018°40'0 0.0 19.7
2018-Feb-15 22:35N 26°58' W 018°40'113.1 19.7
2018-Feb-15 22:29N 26°59' W 018°39'1 1.5 19.7
2018-Feb-15 21:42N 26°58' W 018°39'0 0.0 19.7
2018-Feb-15 21:28N 26°58' W 018°39'0 0.0 19.7
2018-Feb-15 20:53N 26°58' W 018°39'1 4.6 19.7
2018-Feb-15 20:46N 26°58' W 018°40'0 0.0 19.7
2018-Feb-15 20:22N 26°58' W 018°40'1 2.4 19.7
2018-Feb-15 20:02N 26°58' W 018°39'1 0.7 19.7
2018-Feb-15 19:13N 26°58' W 018°40'0 0.0 19.7
2018-Feb-15 18:42N 26°58' W 018°40'1 0.4 19.7
2018-Feb-15 17:13N 26°57' W 018°40'1 3.3 19.7
2018-Feb-15 17:02N 26°56' W 018°40'0 0.0 19.7
2018-Feb-15 15:30N 26°56' W 018°40'1 0.3 19.7
2018-Feb-15 11:59N 26°56' W 018°38'0 0.0 19.7
2018-Feb-15 11:55N 26°56' W 018°38'0 0.0 19.7
2018-Feb-15 11:15N 26°56' W 018°38'1 1.2 19.7
2018-Feb-15 10:21N 26°56' W 018°37'112.3 19.7
2018-Feb-15 10:15N 26°57' W 018°38'0 0.0 19.7
2018-Feb-15 09:34N 26°57' W 018°38'0 0.0 19.7
2018-Feb-15 08:36N 26°57' W 018°38'0 0.0 19.7
2018-Feb-15 08:03N 26°57' W 018°38'1 4.0 19.7
2018-Feb-15 07:54N 26°58' W 018°38'0 0.0 19.7
2018-Feb-15 07:50N 26°58' W 018°38'0 0.0 19.7
2018-Feb-15 06:23N 26°58' W 018°38'1 1.0 19.7
2018-Feb-15 05:52N 26°58' W 018°39'0 0.0 19.7
2018-Feb-15 04:14N 26°58' W 018°39'214.7 19.7
2018-Feb-15 04:07N 26°58' W 018°41'0 0.0 19.7
2018-Feb-14 23:38N 26°58' W 018°41'1 0.3 19.7
2018-Feb-14 21:16N 26°58' W 018°41'1 7.2 19.8
2018-Feb-14 21:11N 26°58' W 018°41'1 1.9 19.8
2018-Feb-14 20:52N 26°58' W 018°41'0 0.0 19.8
2018-Feb-14 20:11N 26°58' W 018°41'1 1.0 19.8
2018-Feb-14 19:38N 26°58' W 018°41'1 1.5 19.8
2018-Feb-14 19:14N 26°57' W 018°41'0 0.0 19.8
2018-Feb-14 17:25N 26°57' W 018°41'1 8.2 19.8
2018-Feb-14 17:16N 26°56' W 018°43'0 0.0 19.9
2018-Feb-14 15:44N 26°56' W 018°43'1 0.2 19.9
2018-Feb-14 12:20N 26°56' W 018°42'0 0.0 19.8
2018-Feb-14 12:17N 26°56' W 018°42'0 0.0 19.8
2018-Feb-14 11:38N 26°56' W 018°42'0 0.0 19.8
2018-Feb-14 11:35N 26°56' W 018°42'0 0.0 19.8
2018-Feb-14 10:44N 26°56' W 018°42'1 5.3 19.7
2018-Feb-14 10:38N 26°56' W 018°41'0 0.0 19.7
2018-Feb-14 10:29N 26°56' W 018°41'1 1.8 19.7
2018-Feb-14 10:02N 26°57' W 018°42'1 0.7 19.7
2018-Feb-14 08:51N 26°58' W 018°41'1 2.2 19.7
2018-Feb-14 08:29N 26°57' W 018°42'1 0.5 19.7
2018-Feb-14 06:55N 26°58' W 018°41'3 3.5 19.7
2018-Feb-14 05:57N 26°59' W 018°45'0 0.0 19.7
2018-Feb-14 05:11N 26°59' W 018°45'0 0.0 19.7
2018-Feb-14 04:26N 26°59' W 018°45'0 0.0 19.7
2018-Feb-14 04:17N 26°59' W 018°45'0 0.0 19.7
2018-Feb-13 23:59N 26°59' W 018°45'0 0.0 19.8
2018-Feb-13 23:55N 26°59' W 018°45'0 0.0 19.8
2018-Feb-13 23:15N 26°59' W 018°45'0 0.0 19.8
2018-Feb-13 22:14N 26°59' W 018°45'0 0.0 19.8
2018-Feb-13 22:01N 26°59' W 018°45'0 0.0 19.8
2018-Feb-13 21:30N 26°59' W 018°45'0 0.0 19.8
2018-Feb-13 21:21N 26°59' W 018°45'2 1.9 19.8
2018-Feb-13 20:26N 26°59' W 018°47'0 0.0 19.8
2018-Feb-13 20:05N 26°59' W 018°47'1 3.7 19.8
2018-Feb-13 19:45N 26°59' W 018°46'2 2.0 19.8
2018-Feb-13 18:41N 26°59' W 018°48'0 0.0 19.8
2018-Feb-13 18:23N 26°59' W 018°48'1 3.7 19.9
2018-Feb-13 18:03N 26°59' W 018°47'1 3.0 19.9
2018-Feb-13 17:37N 26°58' W 018°46'0 0.0 19.9
2018-Feb-13 15:56N 26°58' W 018°46'0 0.0 19.9
2018-Feb-13 12:41N 26°58' W 018°46'0 0.0 19.8
2018-Feb-13 12:03N 26°58' W 018°46'1 0.6 19.8
2018-Feb-13 11:07N 26°59' W 018°46'0 0.0 19.8
2018-Feb-13 11:00N 26°59' W 018°46'1 9.0 19.8
2018-Feb-13 10:56N 26°58' W 018°46'0 0.0 19.8
2018-Feb-13 10:43N 26°58' W 018°46'2 4.0 19.8
2018-Feb-13 10:16N 27°00' W 018°46'2 1.3 19.7
2018-Feb-13 08:51N 26°58' W 018°46'2 1.3 19.7
2018-Feb-13 07:25N 27°00' W 018°46'0 0.0 19.7
2018-Feb-13 07:03N 27°00' W 018°46'0 0.0 19.7
2018-Feb-13 06:14N 27°00' W 018°46'1 6.9 19.7
2018-Feb-13 06:07N 26°59' W 018°47'0 0.0 19.7
2018-Feb-13 05:44N 26°59' W 018°47'1 1.0 19.7
2018-Feb-13 04:31N 27°01' W 018°47'387.9 19.7
2018-Feb-13 04:29N 27°02' W 018°50'0 0.0 19.7
2018-Feb-13 00:17N 27°02' W 018°50'0 0.0 19.8
2018-Feb-12 22:42N 27°02' W 018°50'1 8.0 19.8
2018-Feb-12 22:38N 27°02' W 018°49'0 0.0 19.8
2018-Feb-12 22:15N 27°02' W 018°49'0 0.0 19.8
2018-Feb-12 21:58N 27°02' W 018°49'1 0.4 19.8
2018-Feb-12 20:39N 27°02' W 018°50'1 2.2 19.8
2018-Feb-12 20:17N 27°01' W 018°50'1 0.4 19.8
2018-Feb-12 18:55N 27°02' W 018°50'1 5.1 19.8
2018-Feb-12 18:48N 27°01' W 018°50'1 3.3 19.8
2018-Feb-12 18:37N 27°02' W 018°50'0 0.0 19.8
2018-Feb-12 17:46N 27°02' W 018°50'1 0.5 19.8
2018-Feb-12 16:08N 27°01' W 018°51'0 0.0 19.8
2018-Feb-12 13:01N 27°01' W 018°51'1 0.7 19.8
2018-Feb-12 12:15N 27°01' W 018°50'0 0.0 19.8
2018-Feb-12 11:23N 27°01' W 018°50'1 6.0 19.8
2018-Feb-12 11:15N 27°01' W 018°51'0 0.0 19.8
2018-Feb-12 10:55N 27°01' W 018°51'0 0.0 19.8
2018-Feb-12 10:43N 27°01' W 018°51'1 8.0 19.8
2018-Feb-12 10:37N 27°01' W 018°50'0 0.0 19.8
2018-Feb-12 09:39N 27°01' W 018°50'0 0.0 19.8
2018-Feb-12 09:15N 27°01' W 018°50'1 9.6 19.8
2018-Feb-12 09:10N 27°02' W 018°51'0 0.0 19.8
2018-Feb-12 07:57N 27°02' W 018°51'0 0.0 19.8
2018-Feb-12 07:28N 27°02' W 018°51'1 0.6 19.8
2018-Feb-12 06:27N 27°01' W 018°51'112.3 19.8
2018-Feb-12 06:21N 27°02' W 018°50'114.7 19.8
2018-Feb-12 06:16N 27°01' W 018°51'1 0.8 19.8
2018-Feb-12 04:45N 27°02' W 018°50'324.0 19.8
2018-Feb-12 04:38N 27°04' W 018°52'   19.8

Dump ship's entire track history